sensor_id;sensor_type;location;lat;lon;timestamp;P1;durP1;ratioP1;P2;durP2;ratioP2
8319;SDS011;4197;42.130;24.746;2023-06-26T00:01:28;11.32;;;6.40;;
8319;SDS011;4197;42.130;24.746;2023-06-26T00:03:58;10.30;;;7.40;;
8319;SDS011;4197;42.130;24.746;2023-06-26T00:06:27;9.65;;;6.75;;
8319;SDS011;4197;42.130;24.746;2023-06-26T00:08:55;12.35;;;6.68;;
8319;SDS011;4197;42.130;24.746;2023-06-26T00:11:25;12.20;;;7.10;;
8319;SDS011;4197;42.130;24.746;2023-06-26T00:13:55;8.60;;;6.38;;
8319;SDS011;4197;42.130;24.746;2023-06-26T00:16:23;12.45;;;6.40;;
8319;SDS011;4197;42.130;24.746;2023-06-26T00:18:52;10.48;;;6.82;;
8319;SDS011;4197;42.130;24.746;2023-06-26T00:21:20;12.95;;;7.55;;
8319;SDS011;4197;42.130;24.746;2023-06-26T00:23:48;10.68;;;6.93;;
8319;SDS011;4197;42.130;24.746;2023-06-26T00:26:17;13.75;;;7.20;;
8319;SDS011;4197;42.130;24.746;2023-06-26T00:28:45;10.10;;;6.50;;
8319;SDS011;4197;42.130;24.746;2023-06-26T00:31:15;11.50;;;7.07;;
8319;SDS011;4197;42.130;24.746;2023-06-26T00:33:43;9.50;;;6.85;;
8319;SDS011;4197;42.130;24.746;2023-06-26T00:36:11;11.23;;;6.40;;
8319;SDS011;4197;42.130;24.746;2023-06-26T00:38:40;9.38;;;6.13;;
8319;SDS011;4197;42.130;24.746;2023-06-26T00:41:08;10.75;;;6.72;;
8319;SDS011;4197;42.130;24.746;2023-06-26T00:43:39;10.95;;;5.70;;
8319;SDS011;4197;42.130;24.746;2023-06-26T00:46:08;13.63;;;6.53;;
8319;SDS011;4197;42.130;24.746;2023-06-26T00:48:39;11.98;;;7.05;;
8319;SDS011;4197;42.130;24.746;2023-06-26T00:51:11;9.82;;;6.47;;
8319;SDS011;4197;42.130;24.746;2023-06-26T00:53:40;11.57;;;6.90;;
8319;SDS011;4197;42.130;24.746;2023-06-26T00:56:10;12.80;;;7.22;;
8319;SDS011;4197;42.130;24.746;2023-06-26T00:58:39;14.00;;;7.45;;
8319;SDS011;4197;42.130;24.746;2023-06-26T01:01:07;11.00;;;6.90;;
8319;SDS011;4197;42.130;24.746;2023-06-26T01:03:45;10.95;;;6.88;;
8319;SDS011;4197;42.130;24.746;2023-06-26T01:06:18;15.20;;;7.53;;
8319;SDS011;4197;42.130;24.746;2023-06-26T01:08:49;10.45;;;7.45;;
8319;SDS011;4197;42.130;24.746;2023-06-26T01:11:19;12.20;;;6.88;;
8319;SDS011;4197;42.130;24.746;2023-06-26T01:13:47;11.95;;;8.10;;
8319;SDS011;4197;42.130;24.746;2023-06-26T01:16:16;11.25;;;7.80;;
8319;SDS011;4197;42.130;24.746;2023-06-26T01:18:48;10.30;;;6.72;;
8319;SDS011;4197;42.130;24.746;2023-06-26T01:21:16;13.30;;;7.70;;
8319;SDS011;4197;42.130;24.746;2023-06-26T01:23:49;13.50;;;8.10;;
8319;SDS011;4197;42.130;24.746;2023-06-26T01:26:28;10.85;;;7.35;;
8319;SDS011;4197;42.130;24.746;2023-06-26T01:29:02;12.05;;;7.97;;
8319;SDS011;4197;42.130;24.746;2023-06-26T01:31:31;10.93;;;7.75;;
8319;SDS011;4197;42.130;24.746;2023-06-26T01:34:01;12.65;;;7.85;;
8319;SDS011;4197;42.130;24.746;2023-06-26T01:36:30;14.30;;;9.00;;
8319;SDS011;4197;42.130;24.746;2023-06-26T01:38:58;13.02;;;7.88;;
8319;SDS011;4197;42.130;24.746;2023-06-26T01:44:17;10.77;;;8.10;;
8319;SDS011;4197;42.130;24.746;2023-06-26T01:46:58;13.52;;;8.55;;
8319;SDS011;4197;42.130;24.746;2023-06-26T01:49:39;13.05;;;8.15;;
8319;SDS011;4197;42.130;24.746;2023-06-26T01:52:16;12.23;;;8.93;;
8319;SDS011;4197;42.130;24.746;2023-06-26T01:54:53;16.05;;;9.40;;
8319;SDS011;4197;42.130;24.746;2023-06-26T01:57:27;13.95;;;9.38;;
8319;SDS011;4197;42.130;24.746;2023-06-26T01:59:57;13.68;;;8.50;;
8319;SDS011;4197;42.130;24.746;2023-06-26T02:02:27;14.15;;;9.10;;
8319;SDS011;4197;42.130;24.746;2023-06-26T02:04:56;20.23;;;9.65;;
8319;SDS011;4197;42.130;24.746;2023-06-26T02:07:24;12.60;;;8.35;;
8319;SDS011;4197;42.130;24.746;2023-06-26T02:09:53;15.55;;;9.20;;
8319;SDS011;4197;42.130;24.746;2023-06-26T02:12:21;15.30;;;9.57;;
8319;SDS011;4197;42.130;24.746;2023-06-26T02:14:51;13.52;;;9.05;;
8319;SDS011;4197;42.130;24.746;2023-06-26T02:17:19;11.68;;;8.90;;
8319;SDS011;4197;42.130;24.746;2023-06-26T02:19:47;15.02;;;10.55;;
8319;SDS011;4197;42.130;24.746;2023-06-26T02:22:16;14.45;;;9.00;;
8319;SDS011;4197;42.130;24.746;2023-06-26T02:24:44;14.80;;;10.02;;
8319;SDS011;4197;42.130;24.746;2023-06-26T02:27:12;14.70;;;10.18;;
8319;SDS011;4197;42.130;24.746;2023-06-26T02:29:40;14.30;;;10.73;;
8319;SDS011;4197;42.130;24.746;2023-06-26T02:32:10;14.23;;;10.10;;
8319;SDS011;4197;42.130;24.746;2023-06-26T02:34:38;13.93;;;10.00;;
8319;SDS011;4197;42.130;24.746;2023-06-26T02:37:06;16.30;;;10.02;;
8319;SDS011;4197;42.130;24.746;2023-06-26T02:39:35;13.90;;;10.38;;
8319;SDS011;4197;42.130;24.746;2023-06-26T02:42:03;17.13;;;10.13;;
8319;SDS011;4197;42.130;24.746;2023-06-26T02:44:31;15.45;;;10.80;;
8319;SDS011;4197;42.130;24.746;2023-06-26T02:47:00;16.60;;;10.27;;
8319;SDS011;4197;42.130;24.746;2023-06-26T02:49:29;16.52;;;10.98;;
8319;SDS011;4197;42.130;24.746;2023-06-26T02:51:57;15.05;;;10.15;;
8319;SDS011;4197;42.130;24.746;2023-06-26T02:54:25;16.58;;;11.52;;
8319;SDS011;4197;42.130;24.746;2023-06-26T02:56:53;16.33;;;11.73;;
8319;SDS011;4197;42.130;24.746;2023-06-26T02:59:21;15.90;;;12.68;;
8319;SDS011;4197;42.130;24.746;2023-06-26T03:01:50;16.88;;;10.65;;
8319;SDS011;4197;42.130;24.746;2023-06-26T03:04:18;18.52;;;10.57;;
8319;SDS011;4197;42.130;24.746;2023-06-26T03:06:49;16.77;;;10.75;;
8319;SDS011;4197;42.130;24.746;2023-06-26T03:09:17;17.45;;;10.30;;
8319;SDS011;4197;42.130;24.746;2023-06-26T03:11:45;16.27;;;10.82;;
8319;SDS011;4197;42.130;24.746;2023-06-26T03:14:14;16.05;;;10.38;;
8319;SDS011;4197;42.130;24.746;2023-06-26T03:16:42;14.95;;;10.07;;
8319;SDS011;4197;42.130;24.746;2023-06-26T03:19:11;17.25;;;10.57;;
8319;SDS011;4197;42.130;24.746;2023-06-26T03:21:39;17.50;;;9.40;;
8319;SDS011;4197;42.130;24.746;2023-06-26T03:24:09;13.93;;;10.75;;
8319;SDS011;4197;42.130;24.746;2023-06-26T03:26:39;16.13;;;10.50;;
8319;SDS011;4197;42.130;24.746;2023-06-26T03:29:08;16.83;;;10.80;;
8319;SDS011;4197;42.130;24.746;2023-06-26T03:31:36;16.02;;;10.15;;
8319;SDS011;4197;42.130;24.746;2023-06-26T03:34:04;17.55;;;10.80;;
8319;SDS011;4197;42.130;24.746;2023-06-26T03:36:32;15.65;;;11.25;;
8319;SDS011;4197;42.130;24.746;2023-06-26T03:39:02;15.98;;;11.05;;
8319;SDS011;4197;42.130;24.746;2023-06-26T03:41:32;15.68;;;10.43;;
8319;SDS011;4197;42.130;24.746;2023-06-26T03:44:00;15.45;;;10.70;;
8319;SDS011;4197;42.130;24.746;2023-06-26T03:46:28;17.27;;;10.90;;
8319;SDS011;4197;42.130;24.746;2023-06-26T03:48:56;16.30;;;10.30;;
8319;SDS011;4197;42.130;24.746;2023-06-26T03:51:24;21.17;;;11.05;;
8319;SDS011;4197;42.130;24.746;2023-06-26T03:53:52;16.48;;;10.40;;
8319;SDS011;4197;42.130;24.746;2023-06-26T03:56:21;13.68;;;10.70;;
8319;SDS011;4197;42.130;24.746;2023-06-26T03:58:50;14.85;;;10.98;;
8319;SDS011;4197;42.130;24.746;2023-06-26T04:01:18;15.43;;;10.55;;
8319;SDS011;4197;42.130;24.746;2023-06-26T04:03:48;16.92;;;10.95;;
8319;SDS011;4197;42.130;24.746;2023-06-26T04:06:16;18.80;;;11.35;;
8319;SDS011;4197;42.130;24.746;2023-06-26T04:08:44;14.98;;;10.90;;
8319;SDS011;4197;42.130;24.746;2023-06-26T04:11:12;15.68;;;11.05;;
8319;SDS011;4197;42.130;24.746;2023-06-26T04:13:40;14.85;;;11.57;;
8319;SDS011;4197;42.130;24.746;2023-06-26T04:16:10;16.50;;;10.60;;
8319;SDS011;4197;42.130;24.746;2023-06-26T04:18:39;16.95;;;11.82;;
8319;SDS011;4197;42.130;24.746;2023-06-26T04:21:07;19.20;;;11.80;;
8319;SDS011;4197;42.130;24.746;2023-06-26T04:23:38;15.88;;;11.55;;
8319;SDS011;4197;42.130;24.746;2023-06-26T04:26:07;16.42;;;11.38;;
8319;SDS011;4197;42.130;24.746;2023-06-26T04:28:36;14.25;;;11.23;;
8319;SDS011;4197;42.130;24.746;2023-06-26T04:31:04;19.65;;;11.85;;
8319;SDS011;4197;42.130;24.746;2023-06-26T04:33:34;23.38;;;11.77;;
8319;SDS011;4197;42.130;24.746;2023-06-26T04:36:02;12.63;;;10.95;;
8319;SDS011;4197;42.130;24.746;2023-06-26T04:38:30;14.60;;;10.30;;
8319;SDS011;4197;42.130;24.746;2023-06-26T04:40:59;15.95;;;10.77;;
8319;SDS011;4197;42.130;24.746;2023-06-26T04:43:28;17.95;;;11.43;;
8319;SDS011;4197;42.130;24.746;2023-06-26T04:45:56;15.73;;;11.45;;
8319;SDS011;4197;42.130;24.746;2023-06-26T04:48:24;17.35;;;12.05;;
8319;SDS011;4197;42.130;24.746;2023-06-26T04:50:55;20.63;;;11.48;;
8319;SDS011;4197;42.130;24.746;2023-06-26T04:53:25;14.18;;;11.43;;
8319;SDS011;4197;42.130;24.746;2023-06-26T04:55:53;15.82;;;11.35;;
8319;SDS011;4197;42.130;24.746;2023-06-26T04:58:21;15.50;;;11.57;;
8319;SDS011;4197;42.130;24.746;2023-06-26T05:00:49;17.90;;;11.45;;
8319;SDS011;4197;42.130;24.746;2023-06-26T05:03:18;15.30;;;11.98;;
8319;SDS011;4197;42.130;24.746;2023-06-26T05:05:47;15.30;;;11.13;;
8319;SDS011;4197;42.130;24.746;2023-06-26T05:08:17;14.70;;;11.02;;
8319;SDS011;4197;42.130;24.746;2023-06-26T05:10:48;15.93;;;10.63;;
8319;SDS011;4197;42.130;24.746;2023-06-26T05:13:16;12.73;;;9.75;;
8319;SDS011;4197;42.130;24.746;2023-06-26T05:15:46;14.18;;;11.13;;
8319;SDS011;4197;42.130;24.746;2023-06-26T05:18:14;12.95;;;9.70;;
8319;SDS011;4197;42.130;24.746;2023-06-26T05:20:42;15.32;;;9.90;;
8319;SDS011;4197;42.130;24.746;2023-06-26T05:23:11;15.93;;;9.82;;
8319;SDS011;4197;42.130;24.746;2023-06-26T05:25:42;11.88;;;9.43;;
8319;SDS011;4197;42.130;24.746;2023-06-26T05:28:10;14.82;;;9.93;;
8319;SDS011;4197;42.130;24.746;2023-06-26T05:30:41;13.98;;;10.20;;
8319;SDS011;4197;42.130;24.746;2023-06-26T05:33:10;15.02;;;9.82;;
8319;SDS011;4197;42.130;24.746;2023-06-26T05:35:39;13.75;;;9.63;;
8319;SDS011;4197;42.130;24.746;2023-06-26T05:38:10;10.27;;;9.02;;
8319;SDS011;4197;42.130;24.746;2023-06-26T05:40:39;16.00;;;9.35;;
8319;SDS011;4197;42.130;24.746;2023-06-26T05:43:10;12.88;;;9.50;;
8319;SDS011;4197;42.130;24.746;2023-06-26T05:45:38;11.82;;;8.45;;
8319;SDS011;4197;42.130;24.746;2023-06-26T05:48:07;10.27;;;9.10;;
8319;SDS011;4197;42.130;24.746;2023-06-26T05:50:36;12.10;;;8.52;;
8319;SDS011;4197;42.130;24.746;2023-06-26T05:53:05;15.60;;;8.75;;
8319;SDS011;4197;42.130;24.746;2023-06-26T05:55:34;11.60;;;8.73;;
8319;SDS011;4197;42.130;24.746;2023-06-26T05:58:04;13.13;;;8.60;;
8319;SDS011;4197;42.130;24.746;2023-06-26T06:00:33;14.38;;;8.35;;
8319;SDS011;4197;42.130;24.746;2023-06-26T06:03:02;13.43;;;8.60;;
8319;SDS011;4197;42.130;24.746;2023-06-26T06:05:30;11.77;;;8.65;;
8319;SDS011;4197;42.130;24.746;2023-06-26T06:07:58;11.88;;;8.43;;
8319;SDS011;4197;42.130;24.746;2023-06-26T06:10:27;10.32;;;8.02;;
8319;SDS011;4197;42.130;24.746;2023-06-26T06:12:55;17.10;;;9.55;;
8319;SDS011;4197;42.130;24.746;2023-06-26T06:15:24;15.82;;;8.55;;
8319;SDS011;4197;42.130;24.746;2023-06-26T06:17:56;13.85;;;8.98;;
8319;SDS011;4197;42.130;24.746;2023-06-26T06:20:25;13.25;;;8.93;;
8319;SDS011;4197;42.130;24.746;2023-06-26T06:22:53;10.70;;;8.60;;
8319;SDS011;4197;42.130;24.746;2023-06-26T06:25:21;16.85;;;8.60;;
8319;SDS011;4197;42.130;24.746;2023-06-26T06:27:50;10.98;;;8.07;;
8319;SDS011;4197;42.130;24.746;2023-06-26T06:30:18;13.05;;;8.27;;
8319;SDS011;4197;42.130;24.746;2023-06-26T06:33:06;14.45;;;9.10;;
8319;SDS011;4197;42.130;24.746;2023-06-26T06:35:34;10.75;;;8.32;;
8319;SDS011;4197;42.130;24.746;2023-06-26T06:38:02;11.52;;;8.07;;
8319;SDS011;4197;42.130;24.746;2023-06-26T06:40:31;11.07;;;8.30;;
8319;SDS011;4197;42.130;24.746;2023-06-26T06:42:59;13.68;;;8.35;;
8319;SDS011;4197;42.130;24.746;2023-06-26T06:45:27;11.30;;;8.02;;
8319;SDS011;4197;42.130;24.746;2023-06-26T06:47:56;10.23;;;7.93;;
8319;SDS011;4197;42.130;24.746;2023-06-26T06:50:25;20.52;;;8.73;;
8319;SDS011;4197;42.130;24.746;2023-06-26T06:52:54;12.57;;;8.20;;
8319;SDS011;4197;42.130;24.746;2023-06-26T06:55:23;13.77;;;7.95;;
8319;SDS011;4197;42.130;24.746;2023-06-26T06:57:52;11.95;;;7.65;;
8319;SDS011;4197;42.130;24.746;2023-06-26T07:00:20;11.57;;;8.35;;
8319;SDS011;4197;42.130;24.746;2023-06-26T07:02:49;11.45;;;6.80;;
8319;SDS011;4197;42.130;24.746;2023-06-26T07:05:17;11.18;;;7.30;;
8319;SDS011;4197;42.130;24.746;2023-06-26T07:07:47;11.13;;;6.32;;
8319;SDS011;4197;42.130;24.746;2023-06-26T07:10:15;9.07;;;6.78;;
8319;SDS011;4197;42.130;24.746;2023-06-26T07:12:43;9.75;;;6.32;;
8319;SDS011;4197;42.130;24.746;2023-06-26T07:15:12;9.32;;;6.40;;
8319;SDS011;4197;42.130;24.746;2023-06-26T07:17:40;7.68;;;6.47;;
8319;SDS011;4197;42.130;24.746;2023-06-26T07:20:09;8.52;;;6.13;;
8319;SDS011;4197;42.130;24.746;2023-06-26T07:22:42;11.20;;;6.57;;
8319;SDS011;4197;42.130;24.746;2023-06-26T07:25:13;9.23;;;5.80;;
8319;SDS011;4197;42.130;24.746;2023-06-26T07:27:42;15.38;;;6.43;;
8319;SDS011;4197;42.130;24.746;2023-06-26T07:30:11;8.68;;;6.45;;
8319;SDS011;4197;42.130;24.746;2023-06-26T07:32:40;13.82;;;6.95;;
8319;SDS011;4197;42.130;24.746;2023-06-26T07:35:09;7.72;;;6.03;;
8319;SDS011;4197;42.130;24.746;2023-06-26T07:37:37;8.57;;;5.93;;
8319;SDS011;4197;42.130;24.746;2023-06-26T07:40:08;14.02;;;6.28;;
8319;SDS011;4197;42.130;24.746;2023-06-26T07:42:38;10.38;;;6.53;;
8319;SDS011;4197;42.130;24.746;2023-06-26T07:45:08;7.85;;;5.47;;
8319;SDS011;4197;42.130;24.746;2023-06-26T07:47:39;13.15;;;5.70;;
8319;SDS011;4197;42.130;24.746;2023-06-26T07:50:08;8.65;;;5.38;;
8319;SDS011;4197;42.130;24.746;2023-06-26T07:52:36;9.40;;;5.75;;
8319;SDS011;4197;42.130;24.746;2023-06-26T07:55:05;8.23;;;5.70;;
8319;SDS011;4197;42.130;24.746;2023-06-26T07:57:33;9.57;;;5.68;;
8319;SDS011;4197;42.130;24.746;2023-06-26T08:00:04;9.57;;;5.30;;
8319;SDS011;4197;42.130;24.746;2023-06-26T08:02:33;9.90;;;5.97;;
8319;SDS011;4197;42.130;24.746;2023-06-26T08:05:01;7.60;;;5.00;;
8319;SDS011;4197;42.130;24.746;2023-06-26T08:07:30;6.38;;;4.82;;
8319;SDS011;4197;42.130;24.746;2023-06-26T08:09:58;7.82;;;5.00;;
8319;SDS011;4197;42.130;24.746;2023-06-26T08:12:26;9.18;;;5.60;;
8319;SDS011;4197;42.130;24.746;2023-06-26T08:14:55;6.60;;;5.05;;
8319;SDS011;4197;42.130;24.746;2023-06-26T08:17:25;11.57;;;5.72;;
8319;SDS011;4197;42.130;24.746;2023-06-26T08:19:55;5.88;;;5.28;;
8319;SDS011;4197;42.130;24.746;2023-06-26T08:22:24;9.27;;;5.65;;
8319;SDS011;4197;42.130;24.746;2023-06-26T08:24:52;9.10;;;5.72;;
8319;SDS011;4197;42.130;24.746;2023-06-26T08:27:20;7.45;;;5.95;;
8319;SDS011;4197;42.130;24.746;2023-06-26T08:29:48;7.88;;;6.43;;
8319;SDS011;4197;42.130;24.746;2023-06-26T08:32:17;9.93;;;6.90;;
8319;SDS011;4197;42.130;24.746;2023-06-26T08:34:47;8.95;;;7.15;;
8319;SDS011;4197;42.130;24.746;2023-06-26T08:37:15;10.40;;;7.38;;
8319;SDS011;4197;42.130;24.746;2023-06-26T08:39:43;10.75;;;7.25;;
8319;SDS011;4197;42.130;24.746;2023-06-26T08:42:11;11.75;;;8.70;;
8319;SDS011;4197;42.130;24.746;2023-06-26T08:44:39;11.13;;;7.15;;
8319;SDS011;4197;42.130;24.746;2023-06-26T08:47:26;9.88;;;7.22;;
8319;SDS011;4197;42.130;24.746;2023-06-26T08:49:59;7.90;;;6.75;;
8319;SDS011;4197;42.130;24.746;2023-06-26T08:52:33;11.57;;;8.07;;
8319;SDS011;4197;42.130;24.746;2023-06-26T08:55:09;8.88;;;7.18;;
8319;SDS011;4197;42.130;24.746;2023-06-26T08:57:38;10.70;;;8.93;;
8319;SDS011;4197;42.130;24.746;2023-06-26T09:00:07;11.63;;;9.27;;
8319;SDS011;4197;42.130;24.746;2023-06-26T09:02:37;11.52;;;8.90;;
8319;SDS011;4197;42.130;24.746;2023-06-26T09:05:11;9.60;;;8.18;;
8319;SDS011;4197;42.130;24.746;2023-06-26T09:07:39;9.95;;;7.35;;
8319;SDS011;4197;42.130;24.746;2023-06-26T09:10:08;10.50;;;7.75;;
8319;SDS011;4197;42.130;24.746;2023-06-26T09:12:37;9.43;;;7.50;;
8319;SDS011;4197;42.130;24.746;2023-06-26T09:15:05;12.32;;;6.90;;
8319;SDS011;4197;42.130;24.746;2023-06-26T09:17:38;9.40;;;6.85;;
8319;SDS011;4197;42.130;24.746;2023-06-26T09:20:08;9.90;;;6.50;;
8319;SDS011;4197;42.130;24.746;2023-06-26T09:22:40;9.05;;;5.88;;
8319;SDS011;4197;42.130;24.746;2023-06-26T09:25:10;7.25;;;5.60;;
8319;SDS011;4197;42.130;24.746;2023-06-26T09:27:38;12.57;;;5.85;;
8319;SDS011;4197;42.130;24.746;2023-06-26T09:30:07;9.85;;;6.20;;
8319;SDS011;4197;42.130;24.746;2023-06-26T09:32:36;7.82;;;5.28;;
8319;SDS011;4197;42.130;24.746;2023-06-26T09:35:04;9.60;;;5.22;;
8319;SDS011;4197;42.130;24.746;2023-06-26T09:37:34;8.05;;;5.90;;
8319;SDS011;4197;42.130;24.746;2023-06-26T09:40:04;6.90;;;5.70;;
8319;SDS011;4197;42.130;24.746;2023-06-26T09:42:33;9.73;;;5.35;;
8319;SDS011;4197;42.130;24.746;2023-06-26T09:45:02;6.50;;;5.75;;
8319;SDS011;4197;42.130;24.746;2023-06-26T09:47:30;10.07;;;6.68;;
8319;SDS011;4197;42.130;24.746;2023-06-26T09:49:59;8.55;;;6.25;;
8319;SDS011;4197;42.130;24.746;2023-06-26T09:52:27;8.23;;;6.03;;
8319;SDS011;4197;42.130;24.746;2023-06-26T09:55:10;7.50;;;6.03;;
8319;SDS011;4197;42.130;24.746;2023-06-26T09:57:39;8.68;;;6.38;;
8319;SDS011;4197;42.130;24.746;2023-06-26T10:00:11;7.72;;;5.82;;
8319;SDS011;4197;42.130;24.746;2023-06-26T10:02:39;8.13;;;6.22;;
8319;SDS011;4197;42.130;24.746;2023-06-26T10:05:08;9.45;;;6.38;;
8319;SDS011;4197;42.130;24.746;2023-06-26T10:07:37;8.68;;;6.50;;
8319;SDS011;4197;42.130;24.746;2023-06-26T10:10:07;8.40;;;6.60;;
8319;SDS011;4197;42.130;24.746;2023-06-26T10:12:39;7.50;;;5.88;;
8319;SDS011;4197;42.130;24.746;2023-06-26T10:15:07;9.98;;;6.65;;
8319;SDS011;4197;42.130;24.746;2023-06-26T10:17:40;8.52;;;6.32;;
8319;SDS011;4197;42.130;24.746;2023-06-26T10:20:11;8.70;;;6.15;;
8319;SDS011;4197;42.130;24.746;2023-06-26T10:22:42;8.00;;;6.45;;
8319;SDS011;4197;42.130;24.746;2023-06-26T10:25:14;10.75;;;6.50;;
8319;SDS011;4197;42.130;24.746;2023-06-26T10:27:49;11.80;;;6.65;;
8319;SDS011;4197;42.130;24.746;2023-06-26T10:30:21;7.78;;;6.28;;
8319;SDS011;4197;42.130;24.746;2023-06-26T10:32:54;7.93;;;5.25;;
8319;SDS011;4197;42.130;24.746;2023-06-26T10:35:23;8.95;;;6.15;;
8319;SDS011;4197;42.130;24.746;2023-06-26T10:37:52;8.73;;;4.72;;
8319;SDS011;4197;42.130;24.746;2023-06-26T10:40:39;9.85;;;6.15;;
8319;SDS011;4197;42.130;24.746;2023-06-26T10:43:11;13.18;;;6.75;;
8319;SDS011;4197;42.130;24.746;2023-06-26T10:45:43;7.65;;;6.25;;
8319;SDS011;4197;42.130;24.746;2023-06-26T10:48:14;10.90;;;6.55;;
8319;SDS011;4197;42.130;24.746;2023-06-26T10:50:42;13.88;;;6.88;;
8319;SDS011;4197;42.130;24.746;2023-06-26T10:53:11;8.80;;;5.80;;
8319;SDS011;4197;42.130;24.746;2023-06-26T10:55:47;9.85;;;5.20;;
8319;SDS011;4197;42.130;24.746;2023-06-26T10:58:33;11.13;;;5.80;;
8319;SDS011;4197;42.130;24.746;2023-06-26T11:01:13;9.23;;;4.93;;
8319;SDS011;4197;42.130;24.746;2023-06-26T11:03:44;9.57;;;5.07;;
8319;SDS011;4197;42.130;24.746;2023-06-26T11:06:20;7.90;;;4.75;;
8319;SDS011;4197;42.130;24.746;2023-06-26T11:08:49;6.65;;;5.13;;
8319;SDS011;4197;42.130;24.746;2023-06-26T11:11:20;12.40;;;5.00;;
8319;SDS011;4197;42.130;24.746;2023-06-26T11:13:50;11.55;;;5.25;;
8319;SDS011;4197;42.130;24.746;2023-06-26T11:16:19;7.65;;;4.95;;
8319;SDS011;4197;42.130;24.746;2023-06-26T11:18:48;6.70;;;5.28;;
8319;SDS011;4197;42.130;24.746;2023-06-26T11:21:17;8.52;;;5.65;;
8319;SDS011;4197;42.130;24.746;2023-06-26T11:23:49;6.60;;;5.13;;
8319;SDS011;4197;42.130;24.746;2023-06-26T11:26:21;6.80;;;4.70;;
8319;SDS011;4197;42.130;24.746;2023-06-26T11:28:51;8.57;;;5.45;;
8319;SDS011;4197;42.130;24.746;2023-06-26T11:31:26;7.50;;;5.47;;
8319;SDS011;4197;42.130;24.746;2023-06-26T11:33:57;21.58;;;5.47;;
8319;SDS011;4197;42.130;24.746;2023-06-26T11:36:26;7.72;;;5.53;;
8319;SDS011;4197;42.130;24.746;2023-06-26T11:38:55;9.63;;;6.15;;
8319;SDS011;4197;42.130;24.746;2023-06-26T11:41:27;7.72;;;5.93;;
8319;SDS011;4197;42.130;24.746;2023-06-26T11:44:01;8.27;;;5.70;;
8319;SDS011;4197;42.130;24.746;2023-06-26T11:46:31;10.50;;;6.15;;
8319;SDS011;4197;42.130;24.746;2023-06-26T11:49:00;9.57;;;6.32;;
8319;SDS011;4197;42.130;24.746;2023-06-26T11:51:30;10.30;;;6.80;;
8319;SDS011;4197;42.130;24.746;2023-06-26T11:54:00;11.02;;;7.68;;
8319;SDS011;4197;42.130;24.746;2023-06-26T11:56:29;8.75;;;7.03;;
8319;SDS011;4197;42.130;24.746;2023-06-26T11:58:58;12.05;;;7.80;;
8319;SDS011;4197;42.130;24.746;2023-06-26T12:01:30;10.30;;;7.35;;
8319;SDS011;4197;42.130;24.746;2023-06-26T12:04:01;9.55;;;5.68;;
8319;SDS011;4197;42.130;24.746;2023-06-26T12:06:32;8.30;;;7.03;;
8319;SDS011;4197;42.130;24.746;2023-06-26T12:09:02;8.88;;;6.78;;
8319;SDS011;4197;42.130;24.746;2023-06-26T12:11:33;9.45;;;6.15;;
8319;SDS011;4197;42.130;24.746;2023-06-26T12:14:04;10.32;;;6.90;;
8319;SDS011;4197;42.130;24.746;2023-06-26T12:16:33;11.88;;;6.47;;
8319;SDS011;4197;42.130;24.746;2023-06-26T12:19:03;13.02;;;7.45;;
8319;SDS011;4197;42.130;24.746;2023-06-26T12:21:44;9.00;;;6.72;;
8319;SDS011;4197;42.130;24.746;2023-06-26T12:24:15;13.38;;;6.25;;
8319;SDS011;4197;42.130;24.746;2023-06-26T12:26:45;9.25;;;6.28;;
8319;SDS011;4197;42.130;24.746;2023-06-26T12:29:17;9.55;;;6.50;;
8319;SDS011;4197;42.130;24.746;2023-06-26T12:31:48;9.02;;;6.28;;
8319;SDS011;4197;42.130;24.746;2023-06-26T12:34:18;10.15;;;6.43;;
8319;SDS011;4197;42.130;24.746;2023-06-26T12:36:48;14.18;;;6.78;;
8319;SDS011;4197;42.130;24.746;2023-06-26T12:39:17;12.18;;;6.57;;
8319;SDS011;4197;42.130;24.746;2023-06-26T12:41:48;10.38;;;6.68;;
8319;SDS011;4197;42.130;24.746;2023-06-26T12:44:19;11.32;;;5.75;;
8319;SDS011;4197;42.130;24.746;2023-06-26T12:46:48;12.55;;;6.28;;
8319;SDS011;4197;42.130;24.746;2023-06-26T12:49:18;11.50;;;6.05;;
8319;SDS011;4197;42.130;24.746;2023-06-26T12:51:57;14.05;;;7.00;;
8319;SDS011;4197;42.130;24.746;2023-06-26T12:54:25;16.00;;;6.30;;
8319;SDS011;4197;42.130;24.746;2023-06-26T12:56:54;13.35;;;6.07;;
8319;SDS011;4197;42.130;24.746;2023-06-26T12:59:23;10.68;;;6.05;;
8319;SDS011;4197;42.130;24.746;2023-06-26T13:01:51;10.48;;;6.28;;
8319;SDS011;4197;42.130;24.746;2023-06-26T13:04:20;7.82;;;6.20;;
8319;SDS011;4197;42.130;24.746;2023-06-26T13:06:49;6.78;;;5.32;;
8319;SDS011;4197;42.130;24.746;2023-06-26T13:09:18;8.13;;;5.65;;
8319;SDS011;4197;42.130;24.746;2023-06-26T13:11:46;6.47;;;5.28;;
8319;SDS011;4197;42.130;24.746;2023-06-26T13:14:15;10.02;;;5.50;;
8319;SDS011;4197;42.130;24.746;2023-06-26T13:16:46;10.98;;;6.35;;
8319;SDS011;4197;42.130;24.746;2023-06-26T13:19:15;8.75;;;6.70;;
8319;SDS011;4197;42.130;24.746;2023-06-26T13:21:43;8.45;;;5.93;;
8319;SDS011;4197;42.130;24.746;2023-06-26T13:24:11;8.70;;;6.50;;
8319;SDS011;4197;42.130;24.746;2023-06-26T13:26:40;12.13;;;6.65;;
8319;SDS011;4197;42.130;24.746;2023-06-26T13:29:08;15.23;;;7.32;;
8319;SDS011;4197;42.130;24.746;2023-06-26T13:31:36;16.10;;;6.45;;
8319;SDS011;4197;42.130;24.746;2023-06-26T13:34:06;8.82;;;5.00;;
8319;SDS011;4197;42.130;24.746;2023-06-26T13:36:34;10.15;;;4.68;;
8319;SDS011;4197;42.130;24.746;2023-06-26T13:39:04;8.98;;;4.78;;
8319;SDS011;4197;42.130;24.746;2023-06-26T13:41:32;8.93;;;4.38;;
8319;SDS011;4197;42.130;24.746;2023-06-26T13:44:00;12.98;;;10.40;;
8319;SDS011;4197;42.130;24.746;2023-06-26T13:46:42;6.75;;;3.83;;
8319;SDS011;4197;42.130;24.746;2023-06-26T13:49:12;10.55;;;4.20;;
8319;SDS011;4197;42.130;24.746;2023-06-26T13:51:40;6.68;;;3.95;;
8319;SDS011;4197;42.130;24.746;2023-06-26T13:54:13;12.20;;;4.78;;
8319;SDS011;4197;42.130;24.746;2023-06-26T13:56:41;10.75;;;4.82;;
8319;SDS011;4197;42.130;24.746;2023-06-26T13:59:09;11.55;;;4.97;;
8319;SDS011;4197;42.130;24.746;2023-06-26T14:01:39;10.20;;;4.60;;
8319;SDS011;4197;42.130;24.746;2023-06-26T14:04:09;5.85;;;5.00;;
8319;SDS011;4197;42.130;24.746;2023-06-26T14:06:39;11.60;;;4.88;;
8319;SDS011;4197;42.130;24.746;2023-06-26T14:09:07;11.05;;;4.63;;
8319;SDS011;4197;42.130;24.746;2023-06-26T14:11:35;8.32;;;4.53;;
8319;SDS011;4197;42.130;24.746;2023-06-26T14:14:04;7.68;;;4.05;;
8319;SDS011;4197;42.130;24.746;2023-06-26T14:16:32;14.60;;;4.50;;
8319;SDS011;4197;42.130;24.746;2023-06-26T14:19:01;6.55;;;4.13;;
8319;SDS011;4197;42.130;24.746;2023-06-26T14:21:29;8.63;;;4.15;;
8319;SDS011;4197;42.130;24.746;2023-06-26T14:23:59;16.58;;;4.82;;
8319;SDS011;4197;42.130;24.746;2023-06-26T14:26:30;5.30;;;3.65;;
8319;SDS011;4197;42.130;24.746;2023-06-26T14:28:59;11.75;;;4.00;;
8319;SDS011;4197;42.130;24.746;2023-06-26T14:31:27;6.47;;;4.05;;
8319;SDS011;4197;42.130;24.746;2023-06-26T14:33:56;7.32;;;3.53;;
8319;SDS011;4197;42.130;24.746;2023-06-26T14:36:25;17.67;;;4.35;;
8319;SDS011;4197;42.130;24.746;2023-06-26T14:38:54;10.85;;;4.35;;
8319;SDS011;4197;42.130;24.746;2023-06-26T14:41:25;10.10;;;4.03;;
8319;SDS011;4197;42.130;24.746;2023-06-26T14:43:54;7.80;;;3.80;;
8319;SDS011;4197;42.130;24.746;2023-06-26T14:46:23;9.70;;;4.43;;
8319;SDS011;4197;42.130;24.746;2023-06-26T14:48:52;24.08;;;5.03;;
8319;SDS011;4197;42.130;24.746;2023-06-26T14:51:22;14.82;;;4.47;;
8319;SDS011;4197;42.130;24.746;2023-06-26T14:53:51;10.40;;;4.00;;
8319;SDS011;4197;42.130;24.746;2023-06-26T14:56:19;10.55;;;4.18;;
8319;SDS011;4197;42.130;24.746;2023-06-26T14:58:49;7.03;;;3.80;;
8319;SDS011;4197;42.130;24.746;2023-06-26T15:01:18;15.75;;;3.80;;
8319;SDS011;4197;42.130;24.746;2023-06-26T15:03:47;8.85;;;3.95;;
8319;SDS011;4197;42.130;24.746;2023-06-26T15:06:16;10.02;;;3.45;;
8319;SDS011;4197;42.130;24.746;2023-06-26T15:08:44;12.38;;;3.92;;